Time;durP1;ratioP1;P1;durP2;ratioP2;P2;SDS_P1;SDS_P2;PMS_P1;PMS_P2;Temp;Humidity;BMP_temperature;BMP_pressure;BME280_temperature;BME280_humidity;BME280_pressure;Samples;Min_cycle;Max_cycle;Signal;HPM_P1;HPM_P2
2021/08/21 00:00:22;;;;;;;30.27;18.98;;;;;;;12.93;80.51;100802.91;1757552;80;20985;-78
2021/08/21 00:02:50;;;;;;;50.58;26.45;;;;;;;12.94;80.54;100807.27;1757741;81;20990;-78
2021/08/21 00:05:16;;;;;;;47.50;24.72;;;;;;;12.92;80.57;100809.27;1757680;81;21431;-78
2021/08/21 00:07:42;;;;;;;50.15;26.48;;;;;;;12.90;80.60;100812.63;1757683;80;20966;-78
2021/08/21 00:10:10;;;;;;;68.10;31.23;;;;;;;12.86;80.63;100809.47;1757734;81;20990;-78
2021/08/21 00:12:36;;;;;;;70.57;33.50;;;;;;;12.83;80.66;100809.83;1757632;80;21002;-78
2021/08/21 00:15:04;;;;;;;76.57;34.75;;;;;;;12.82;80.70;100811.33;1757511;81;21200;-78
2021/08/21 00:17:30;;;;;;;70.35;32.53;;;;;;;12.81;80.74;100815.00;1757660;81;20978;-78
2021/08/21 00:19:56;;;;;;;73.70;32.98;;;;;;;12.78;80.76;100814.02;1757531;81;21065;-77
2021/08/21 00:22:22;;;;;;;65.03;29.98;;;;;;;12.76;80.80;100812.03;1757606;81;20993;-78
2021/08/21 00:24:48;;;;;;;50.30;26.30;;;;;;;12.74;80.83;100816.70;1757851;81;20977;-78
2021/08/21 00:27:14;;;;;;;41.15;21.52;;;;;;;12.70;80.87;100818.08;1757402;81;21430;-78
2021/08/21 00:29:40;;;;;;;58.45;24.67;;;;;;;12.67;80.91;100817.06;1757271;81;21691;-78
2021/08/21 00:32:07;;;;;;;67.35;29.70;;;;;;;12.65;80.93;100815.08;1757873;81;21006;-78
2021/08/21 00:34:33;;;;;;;68.65;31.00;;;;;;;12.64;80.96;100818.75;1757425;81;21446;-77
2021/08/21 00:36:59;;;;;;;74.37;30.95;;;;;;;12.62;80.98;100822.11;1757642;80;21021;-78
2021/08/21 00:39:25;;;;;;;65.87;28.90;;;;;;;12.61;81.01;100825.30;1757598;81;21044;-78
2021/08/21 00:41:51;;;;;;;73.60;30.95;;;;;;;12.60;81.05;100828.12;1757777;81;20981;-78
2021/08/21 00:44:17;;;;;;;50.90;24.65;;;;;;;12.57;81.07;100823.96;1762624;80;21035;-78
2021/08/21 00:47:09;;;;;;;39.85;22.05;;;;;;;12.53;81.11;100823.47;1766100;81;21004;-77
2021/08/21 00:49:35;;;;;;;40.63;22.30;;;;;;;12.52;81.12;100823.66;1766194;81;21043;-78
2021/08/21 00:52:04;;;;;;;27.07;18.87;;;;;;;12.49;81.16;100823.48;1765977;81;21173;-78
2021/08/21 00:54:30;;;;;;;38.60;19.90;;;;;;;12.46;81.18;100818.97;1766229;81;20993;-77
2021/08/21 00:56:57;;;;;;;31.27;18.07;;;;;;;12.46;81.22;100821.16;1766104;81;21505;-78
2021/08/21 00:59:23;;;;;;;27.13;16.93;;;;;;;12.46;81.22;100810.95;1766232;81;20961;-77
2021/08/21 01:01:49;;;;;;;25.88;17.00;;;;;;;12.45;81.25;100816.80;1766272;81;21008;-77
2021/08/21 01:04:17;;;;;;;19.92;14.53;;;;;;;12.43;81.30;100817.48;1766031;81;21790;-77
2021/08/21 01:06:43;;;;;;;33.20;19.82;;;;;;;12.42;81.32;100810.46;1766238;81;20921;-78
2021/08/21 01:09:09;;;;;;;34.03;20.50;;;;;;;12.39;81.32;100810.80;1766207;81;21039;-78
2021/08/21 01:11:35;;;;;;;36.15;18.77;;;;;;;12.37;81.36;100811.50;1766145;81;20876;-77
2021/08/21 01:14:01;;;;;;;45.75;20.68;;;;;;;12.34;81.37;100813.67;1766079;81;21047;-78
2021/08/21 01:16:27;;;;;;;44.77;20.68;;;;;;;12.32;81.42;100814.33;1766192;81;21134;-77
2021/08/21 01:18:53;;;;;;;37.38;18.55;;;;;;;12.30;81.45;100813.19;1766104;81;21043;-78
2021/08/21 01:21:21;;;;;;;34.25;18.07;;;;;;;12.27;81.45;100817.54;1766164;81;21143;-78
2021/08/21 01:23:47;;;;;;;29.05;16.10;;;;;;;12.26;81.50;100816.36;1766248;80;21005;-78
2021/08/21 01:26:13;;;;;;;27.40;14.73;;;;;;;12.24;81.53;100812.54;1766022;81;20995;-78
2021/08/21 01:28:39;;;;;;;23.83;14.03;;;;;;;12.22;81.55;100818.54;1766072;80;21925;-78
2021/08/21 01:31:06;;;;;;;22.37;14.30;;;;;;;12.19;81.57;100817.55;1765846;81;20992;-78
2021/08/21 01:33:36;;;;;;;123.10;52.23;;;;;;;12.17;81.60;100814.22;1766237;81;20992;-78
2021/08/21 01:36:03;;;;;;;82.53;40.05;;;;;;;12.16;81.64;100814.38;1766218;81;21059;-78
2021/08/21 01:38:29;;;;;;;46.15;23.20;;;;;;;12.14;81.64;100817.73;1766339;81;20988;-78
2021/08/21 01:40:55;;;;;;;29.00;18.73;;;;;;;12.13;81.68;100820.07;1766093;81;21145;-78
2021/08/21 01:43:21;;;;;;;21.87;16.10;;;;;;;12.10;81.71;100820.41;1765878;80;21028;-78
2021/08/21 01:45:48;;;;;;;18.90;13.95;;;;;;;12.08;81.74;100821.06;1766277;81;20982;-78
2021/08/21 01:48:15;;;;;;;17.32;13.30;;;;;;;12.05;81.75;100819.58;1766019;81;21016;-78
2021/08/21 01:50:41;;;;;;;18.80;14.15;;;;;;;12.05;81.77;100820.91;1766023;80;21036;-78
2021/08/21 01:53:12;;;;;;;15.70;14.03;;;;;;;12.07;81.80;100826.91;1766203;80;21964;-78
2021/08/21 01:55:39;;;;;;;16.95;14.13;;;;;;;12.06;81.81;100827.09;1766185;81;21031;-78
2021/08/21 01:58:05;;;;;;;15.95;13.90;;;;;;;12.05;81.82;100820.91;1766178;81;21028;-78
2021/08/21 02:00:31;;;;;;;18.70;15.65;;;;;;;12.08;81.87;100823.24;1765917;81;21484;-78
2021/08/21 02:02:57;;;;;;;20.08;15.48;;;;;;;12.11;81.87;100820.22;1766288;80;21028;-78
2021/08/21 02:05:24;;;;;;;20.50;14.63;;;;;;;12.15;81.89;100818.89;1765967;81;21462;-78
2021/08/21 02:07:50;;;;;;;21.37;15.28;;;;;;;12.17;81.89;100821.41;1766166;81;21532;-78
2021/08/21 02:10:18;;;;;;;17.85;15.43;;;;;;;12.17;81.89;100826.75;1766027;81;21028;-78
2021/08/21 02:12:44;;;;;;;18.50;15.30;;;;;;;12.15;81.95;100826.91;1766245;80;20986;-78
2021/08/21 02:15:14;;;;;;;20.05;15.38;;;;;;;12.16;81.98;100836.61;1766247;81;21477;-78
2021/08/21 02:17:40;;;;;;;21.65;15.25;;;;;;;12.14;81.99;100831.91;1765196;80;21448;-78
2021/08/21 02:20:15;;;;;;;19.82;15.50;;;;;;;12.16;82.03;100833.94;1766222;81;21492;-78
2021/08/21 02:22:34;;;;;;;16.30;14.25;;;;;;;12.18;82.05;100834.59;1760755;80;21012;-78
2021/08/21 02:25:00;;;;;;;17.70;14.83;;;;;;;12.21;82.07;100828.89;1766158;81;20924;-78
2021/08/21 02:27:29;;;;;;;36.40;22.40;;;;;;;12.21;82.07;100824.88;1766183;80;20901;-78
2021/08/21 02:29:54;;;;;;;26.73;19.25;;;;;;;12.22;82.11;100825.72;1765845;80;21123;-78
2021/08/21 02:32:20;;;;;;;23.05;17.10;;;;;;;12.23;82.13;100826.06;1766227;81;20955;-78
2021/08/21 02:34:46;;;;;;;29.07;19.85;;;;;;;12.24;82.14;100820.56;1766088;81;21016;-78
2021/08/21 02:37:13;;;;;;;20.70;17.92;;;;;;;12.25;82.15;100824.88;1766231;81;21484;-78
2021/08/21 02:39:39;;;;;;;22.67;17.35;;;;;;;12.22;82.16;100818.54;1766023;81;21043;-78
2021/08/21 02:42:05;;;;;;;19.62;16.42;;;;;;;12.22;82.18;100820.37;1708362;81;21151;-78
2021/08/21 02:44:31;;;;;;;19.67;16.20;;;;;;;12.20;82.20;100823.23;1770188;80;20901;-78
2021/08/21 02:46:57;;;;;;;18.40;16.50;;;;;;;12.21;82.24;100831.57;1774910;80;21000;-78
2021/08/21 02:49:23;;;;;;;21.25;18.15;;;;;;;12.19;82.25;100837.60;1774912;80;20977;-78
2021/08/21 02:51:49;;;;;;;21.45;18.60;;;;;;;12.20;82.27;100837.94;1774833;80;21062;-78
2021/08/21 02:54:15;;;;;;;22.48;19.07;;;;;;;12.21;82.29;100834.24;1774972;80;21124;-78
2021/08/21 02:56:41;;;;;;;22.62;19.52;;;;;;;12.23;82.31;100840.27;1774981;80;21260;-78
2021/08/21 02:59:06;;;;;;;23.87;19.75;;;;;;;12.25;82.32;100832.06;1774947;80;20960;-78
2021/08/21 03:01:32;;;;;;;25.88;19.75;;;;;;;12.27;82.34;100830.91;1774744;80;21466;-78
2021/08/21 03:03:58;;;;;;;26.45;20.02;;;;;;;12.32;82.32;100837.06;1775115;80;21000;-78
2021/08/21 03:06:25;;;;;;;25.25;19.48;;;;;;;12.36;82.34;100829.03;1774888;80;21218;-78
2021/08/21 03:08:50;;;;;;;25.70;18.80;;;;;;;12.39;82.34;100824.18;1774839;80;20984;-77
2021/08/21 03:11:16;;;;;;;21.70;18.23;;;;;;;12.44;82.36;100826.35;1774977;80;21000;-78
2021/08/21 03:13:42;;;;;;;18.75;16.77;;;;;;;12.51;82.35;100838.88;1774854;80;21025;-78
2021/08/21 03:16:10;;;;;;;18.48;16.55;;;;;;;12.57;82.34;100832.48;1775305;80;20968;-78
2021/08/21 03:18:37;;;;;;;20.05;16.55;;;;;;;12.62;82.34;100834.16;1774523;80;21134;-78
2021/08/21 03:21:03;;;;;;;20.62;15.63;;;;;;;12.68;82.35;100834.80;1774704;80;21024;-78
2021/08/21 03:23:29;;;;;;;21.27;17.35;;;;;;;12.73;82.36;100837.80;1774901;80;21510;-78
2021/08/21 03:25:55;;;;;;;20.75;16.90;;;;;;;12.77;82.33;100838.59;1774760;80;20989;-78
2021/08/21 03:28:21;;;;;;;19.95;16.57;;;;;;;12.81;82.34;100842.60;1774727;80;21499;-78
2021/08/21 03:30:47;;;;;;;17.85;16.02;;;;;;;12.84;82.34;100843.59;1774616;80;21146;-78
2021/08/21 03:33:13;;;;;;;18.92;16.48;;;;;;;12.85;82.32;100847.10;1774929;80;20977;-78
2021/08/21 03:35:39;;;;;;;20.30;15.20;;;;;;;12.85;82.32;100851.12;1774592;80;20890;-78
2021/08/21 03:38:05;;;;;;;18.25;14.95;;;;;;;12.85;82.34;100855.13;1774838;80;20873;-78
2021/08/21 03:40:31;;;;;;;21.10;16.40;;;;;;;12.85;82.32;100848.44;1774649;80;21506;-78
2021/08/21 03:42:57;;;;;;;21.95;17.10;;;;;;;12.85;82.32;100855.13;1774974;80;21775;-78
2021/08/21 03:45:23;;;;;;;20.37;16.50;;;;;;;12.83;82.32;100849.13;1761914;80;20965;-78
2021/08/21 03:47:49;;;;;;;22.50;16.77;;;;;;;12.81;82.33;100852.47;1757792;81;20978;-78
2021/08/21 03:50:15;;;;;;;23.73;16.00;;;;;;;12.79;82.32;100850.48;1757838;81;21510;-78
2021/08/21 03:52:41;;;;;;;22.17;16.07;;;;;;;12.78;82.32;100848.80;1757552;80;21037;-78
2021/08/21 03:55:07;;;;;;;19.98;16.10;;;;;;;12.79;82.33;100853.16;1757810;81;21151;-78
2021/08/21 03:57:33;;;;;;;19.25;16.82;;;;;;;12.79;82.32;100857.17;1757653;81;21033;-78
2021/08/21 03:59:59;;;;;;;19.27;16.02;;;;;;;12.79;82.31;100857.17;1757639;81;21504;-78
2021/08/21 04:02:26;;;;;;;22.22;17.02;;;;;;;12.80;82.30;100857.52;1757569;81;20998;-78
2021/08/21 04:04:52;;;;;;;18.60;16.32;;;;;;;12.81;82.28;100860.50;1757457;81;21343;-78
2021/08/21 04:07:18;;;;;;;19.05;16.48;;;;;;;12.83;82.29;100858.50;1757482;81;21135;-78
2021/08/21 04:09:44;;;;;;;22.07;16.48;;;;;;;12.84;82.29;100865.53;1757636;81;21060;-78
2021/08/21 04:12:10;;;;;;;18.95;16.27;;;;;;;12.85;82.29;100861.83;1757894;81;21431;-78
2021/08/21 04:14:36;;;;;;;21.62;17.48;;;;;;;12.87;82.30;100859.33;1757419;81;21037;-78
2021/08/21 04:17:02;;;;;;;21.50;16.73;;;;;;;12.89;82.28;100864.00;1757676;81;21025;-78
2021/08/21 04:19:28;;;;;;;21.75;17.87;;;;;;;12.93;82.29;100865.82;1757633;81;21168;-78
2021/08/21 04:21:55;;;;;;;23.75;18.62;;;;;;;12.96;82.28;100868.98;1757448;81;21049;-78
2021/08/21 04:24:20;;;;;;;22.87;18.32;;;;;;;13.05;82.27;100872.47;1757687;81;21029;-78
2021/08/21 04:26:47;;;;;;;22.62;18.37;;;;;;;13.13;82.24;100880.48;1757521;81;21060;-77
2021/08/21 04:29:13;;;;;;;20.90;18.07;;;;;;;13.43;82.39;100883.69;1757677;81;20978;-78
2021/08/21 04:31:40;;;;;;;19.92;17.82;;;;;;;14.24;82.61;100877.71;1757302;81;21174;-78
2021/08/21 04:34:06;;;;;;;18.40;15.15;;;;;;;15.08;82.44;100880.50;1757853;81;21041;-78
2021/08/21 04:36:32;;;;;;;18.07;15.50;;;;;;;15.85;82.13;100882.13;1757548;81;21440;-78
2021/08/21 04:38:59;;;;;;;17.55;13.72;;;;;;;16.44;81.83;100879.41;1757422;81;38707;-78
2021/08/21 04:41:25;;;;;;;15.85;13.15;;;;;;;16.91;81.42;100885.96;1757722;81;21041;-78
2021/08/21 04:43:50;;;;;;;18.52;13.72;;;;;;;16.84;80.78;100891.83;1757432;81;21120;-78
2021/08/21 04:46:16;;;;;;;20.25;13.80;;;;;;;16.18;80.35;100888.64;1757160;80;20998;-78
2021/08/21 04:48:43;;;;;;;16.40;13.70;;;;;;;15.70;80.32;100890.23;1757626;81;21037;-78
2021/08/21 04:51:09;;;;;;;14.13;12.63;;;;;;;15.68;80.45;100891.47;1757796;81;21038;-78
2021/08/21 04:53:35;;;;;;;16.55;12.65;;;;;;;15.99;80.52;100890.63;1757420;81;21025;-78
2021/08/21 04:56:01;;;;;;;15.88;13.85;;;;;;;16.02;80.13;100887.55;1757817;81;21537;-78
2021/08/21 04:58:27;;;;;;;17.40;13.30;;;;;;;15.75;79.90;100891.02;1757599;81;21438;-78
2021/08/21 05:00:53;;;;;;;15.32;12.65;;;;;;;15.58;79.86;100897.66;1757951;81;21475;-78
2021/08/21 05:03:19;;;;;;;17.52;13.53;;;;;;;15.74;79.97;100898.25;1757659;81;21498;-78
2021/08/21 05:05:45;;;;;;;15.25;13.65;;;;;;;15.75;79.68;100899.09;1757708;81;21466;-78
2021/08/21 05:08:11;;;;;;;14.70;12.82;;;;;;;16.00;79.75;100899.03;1757750;81;21894;-78
2021/08/21 05:10:37;;;;;;;16.32;13.32;;;;;;;16.56;79.36;100900.45;1757531;81;21021;-78
2021/08/21 05:13:03;;;;;;;14.13;12.05;;;;;;;16.55;78.92;100893.36;1779836;80;21017;-78
2021/08/21 05:15:33;;;;;;;13.78;11.80;;;;;;;16.62;78.81;100898.30;1765084;80;20979;-78
2021/08/21 05:17:57;;;;;;;15.80;12.25;;;;;;;16.47;78.72;100904.59;1770860;80;21480;-78
2021/08/21 05:20:41;;;;;;;16.62;13.38;;;;;;;16.46;78.69;100902.12;1787716;80;21763;-78
2021/08/21 05:25:26;;;;;;;13.35;11.90;;;;;;;16.44;78.57;100911.72;1780739;80;21048;-78
2021/08/21 05:27:52;;;;;;;14.55;11.80;;;;;;;16.38;78.48;100908.47;1788407;78;21043;-75
2021/08/21 05:30:18;;;;;;;15.75;11.40;;;;;;;16.33;78.39;100916.29;1786325;80;21047;-74
2021/08/21 05:32:44;;;;;;;16.73;12.35;;;;;;;16.26;78.34;100916.74;1791746;80;21230;-74
2021/08/21 05:35:10;;;;;;;15.28;11.78;;;;;;;16.24;78.26;100916.12;1757782;81;20907;-74
2021/08/21 05:37:36;;;;;;;13.68;11.53;;;;;;;16.27;78.17;100914.38;1786271;80;20995;-74
2021/08/21 05:40:03;;;;;;;13.88;11.03;;;;;;;16.36;78.02;100921.28;1792249;80;21400;-75
2021/08/21 05:42:30;;;;;;;13.13;10.98;;;;;;;16.61;77.94;100923.56;1792727;79;21510;-75
2021/08/21 05:44:56;;;;;;;12.88;11.05;;;;;;;16.67;77.80;100925.50;1788606;80;21460;-74
2021/08/21 05:47:22;;;;;;;12.63;11.12;;;;;;;16.63;77.67;100918.83;1780797;80;21013;-74
2021/08/21 05:49:48;;;;;;;10.98;9.85;;;;;;;16.61;77.58;100928.95;1780289;80;21035;-74
2021/08/21 05:52:14;;;;;;;11.18;10.03;;;;;;;16.69;77.46;100928.30;1780801;80;20970;-75
2021/08/21 05:54:42;;;;;;;12.18;10.88;;;;;;;17.05;77.34;100925.42;1780496;80;20987;-75
2021/08/21 05:57:08;;;;;;;11.38;10.18;;;;;;;17.45;77.19;100925.91;1751001;80;21813;-74
2021/08/21 05:59:34;;;;;;;15.20;10.15;;;;;;;17.89;76.98;100924.63;1729041;81;20996;-74
2021/08/21 06:02:00;;;;;;;12.75;10.03;;;;;;;18.21;76.71;100922.48;1742402;80;21016;-74
2021/08/21 06:04:26;;;;;;;11.65;10.45;;;;;;;18.54;76.52;100924.40;1736713;80;21059;-74
2021/08/21 06:06:53;;;;;;;11.48;9.93;;;;;;;18.88;76.17;100932.24;1728267;80;21064;-74
2021/08/21 06:09:20;;;;;;;12.75;9.63;;;;;;;19.05;75.90;100935.31;1731926;80;22110;-74
2021/08/21 06:11:46;;;;;;;11.53;9.60;;;;;;;19.09;75.56;100941.45;1753637;80;21016;-74
2021/08/21 06:14:12;;;;;;;14.07;8.85;;;;;;;19.10;75.19;100936.36;1742649;80;21476;-74
2021/08/21 06:16:38;;;;;;;14.03;9.50;;;;;;;19.09;74.92;100941.45;1732663;80;21634;-74
2021/08/21 06:19:04;;;;;;;12.28;8.58;;;;;;;19.27;74.63;100940.77;1736791;80;21633;-74
2021/08/21 06:21:30;;;;;;;13.48;9.30;;;;;;;19.49;74.25;100934.06;1730429;81;21142;-74
2021/08/21 06:23:56;;;;;;;12.30;8.60;;;;;;;19.63;73.95;100944.30;1735347;80;21015;-75
2021/08/21 06:26:22;;;;;;;9.28;8.20;;;;;;;19.83;73.57;100936.90;1753232;80;20912;-75
2021/08/21 06:28:48;;;;;;;12.78;8.65;;;;;;;19.95;73.32;100936.49;1733819;80;21028;-74
2021/08/21 06:31:14;;;;;;;12.00;8.25;;;;;;;19.99;73.00;100942.30;1736191;80;21052;-76
2021/08/21 06:33:40;;;;;;;8.93;8.03;;;;;;;20.18;72.76;100946.25;1743579;80;21932;-77
2021/08/21 06:36:06;;;;;;;9.98;8.10;;;;;;;20.27;72.29;100954.44;1737596;80;21047;-77
2021/08/21 06:38:33;;;;;;;11.53;8.83;;;;;;;20.20;71.91;100955.49;1734635;80;21062;-77
2021/08/21 06:40:58;;;;;;;8.50;7.60;;;;;;;20.17;71.67;100950.00;1743275;80;21088;-78
2021/08/21 06:43:25;;;;;;;10.15;8.18;;;;;;;20.30;71.37;100955.34;1727986;81;21094;-77
2021/08/21 06:45:51;;;;;;;12.68;8.83;;;;;;;20.27;71.11;100954.44;1733771;80;21456;-77
2021/08/21 06:48:17;;;;;;;14.05;9.25;;;;;;;20.26;70.81;100954.12;1742307;80;21592;-77
2021/08/21 06:50:44;;;;;;;12.23;9.00;;;;;;;20.35;70.66;100956.88;1756456;80;20986;-77
2021/08/21 06:53:10;;;;;;;11.90;7.45;;;;;;;20.56;70.41;100960.25;1762869;80;21035;-77
2021/08/21 06:55:36;;;;;;;11.93;8.03;;;;;;;20.66;70.06;100960.58;1764322;80;21007;-77
2021/08/21 06:58:02;;;;;;;12.00;7.28;;;;;;;20.56;69.76;100960.25;1765145;80;21587;-78
2021/08/21 07:00:28;;;;;;;11.12;8.05;;;;;;;20.58;69.69;100955.46;1759180;80;21029;-78
2021/08/21 07:02:54;;;;;;;8.70;7.47;;;;;;;20.65;69.61;100964.37;1760758;80;20979;-77
2021/08/21 07:05:20;;;;;;;9.03;7.10;;;;;;;20.60;69.32;100967.73;1759303;80;21810;-77
2021/08/21 07:07:46;;;;;;;8.55;7.65;;;;;;;20.30;69.17;100962.12;1763879;80;21050;-78
2021/08/21 07:10:12;;;;;;;7.10;6.08;;;;;;;20.35;69.13;100960.95;1761658;80;21559;-77
2021/08/21 07:12:38;;;;;;;12.20;6.97;;;;;;;20.61;68.89;100965.34;1762918;80;21027;-78
2021/08/21 07:15:07;;;;;;;8.00;6.53;;;;;;;20.82;68.67;100960.03;1751336;80;21023;-77
2021/08/21 07:17:33;;;;;;;10.30;5.95;;;;;;;20.96;68.38;100964.27;1742390;80;21092;-77
2021/08/21 07:19:59;;;;;;;7.08;5.90;;;;;;;21.02;68.23;100964.73;1741739;80;21028;-77
2021/08/21 07:22:25;;;;;;;7.12;5.67;;;;;;;21.10;67.83;100958.19;1743428;80;21637;-77
2021/08/21 07:24:51;;;;;;;7.50;5.50;;;;;;;21.17;67.55;100958.97;1745272;80;21785;-78
2021/08/21 07:27:17;;;;;;;7.22;4.95;;;;;;;21.25;67.32;100966.27;1742203;80;21437;-77
2021/08/21 07:29:43;;;;;;;8.15;4.72;;;;;;;21.31;67.08;100964.55;1744618;80;21630;-78
2021/08/21 07:32:09;;;;;;;7.08;4.92;;;;;;;21.41;66.75;100970.27;1742127;80;21001;-78
2021/08/21 07:34:36;;;;;;;9.18;5.47;;;;;;;21.44;66.56;100968.46;1756380;80;22222;-78
2021/08/21 07:37:04;;;;;;;5.50;4.42;;;;;;;21.44;66.26;100972.53;1763954;80;21541;-78
2021/08/21 07:39:30;;;;;;;5.25;4.45;;;;;;;21.35;65.98;100975.27;1756512;80;21085;-78
2021/08/21 07:41:56;;;;;;;3.70;3.37;;;;;;;21.43;65.77;100970.06;1748105;80;20852;-78
2021/08/21 07:44:22;;;;;;;7.83;4.25;;;;;;;21.45;65.38;100976.08;1769105;80;21496;-78
2021/08/21 07:46:47;;;;;;;5.80;4.20;;;;;;;21.54;65.11;100977.42;1764962;80;22955;-78
2021/08/21 07:49:13;;;;;;;5.72;4.80;;;;;;;21.53;64.78;100978.50;1765629;80;21027;-78
2021/08/21 07:51:40;;;;;;;5.15;4.12;;;;;;;21.54;64.58;100974.70;1758962;80;20980;-75
2021/08/21 07:54:06;;;;;;;11.05;5.67;;;;;;;21.59;64.24;100987.08;1761843;80;21018;-75
2021/08/21 07:56:32;;;;;;;6.03;5.40;;;;;;;21.76;64.25;100981.32;1769421;80;21083;-76
2021/08/21 07:58:58;;;;;;;4.75;4.12;;;;;;;22.05;64.08;100985.98;1757199;80;21652;-76
2021/08/21 08:01:24;;;;;;;5.90;5.15;;;;;;;22.05;63.60;100992.77;1772466;80;21074;-80
2021/08/21 08:03:50;;;;;;;7.53;4.28;;;;;;;22.21;63.56;100985.31;1770755;80;21365;-81
2021/08/21 08:06:16;;;;;;;4.35;3.95;;;;;;;22.37;63.42;100984.66;1748840;80;21051;-79
2021/08/21 08:08:42;;;;;;;8.10;4.87;;;;;;;22.35;63.10;100988.12;1755722;80;21062;-79
2021/08/21 08:11:08;;;;;;;5.83;4.53;;;;;;;22.33;62.81;100988.90;1779278;80;21560;-79
2021/08/21 08:13:34;;;;;;;5.85;4.30;;;;;;;22.31;62.54;100982.84;1730574;81;20996;-79
2021/08/21 08:16:00;;;;;;;5.22;4.72;;;;;;;22.24;62.38;100992.99;1732548;81;21040;-79
2021/08/21 08:18:26;;;;;;;5.17;4.65;;;;;;;21.97;62.19;100989.00;1764854;80;21024;-79
2021/08/21 08:20:52;;;;;;;5.17;3.90;;;;;;;22.00;62.18;100990.42;1773150;79;21467;-79
2021/08/21 08:23:18;;;;;;;4.35;3.35;;;;;;;22.13;62.02;100989.70;1737273;81;22594;-80
2021/08/21 08:25:44;;;;;;;6.20;4.17;;;;;;;22.25;61.82;100997.38;1777694;80;21045;-79
2021/08/21 08:28:11;;;;;;;6.25;4.72;;;;;;;22.28;61.61;101009.66;1770968;80;21071;-80
2021/08/21 08:30:37;;;;;;;5.25;4.08;;;;;;;22.29;61.39;100997.22;1775797;80;21011;-79
2021/08/21 08:33:03;;;;;;;5.60;4.37;;;;;;;22.34;61.27;100997.89;1736198;81;20997;-80
2021/08/21 08:35:29;;;;;;;6.05;4.65;;;;;;;22.47;61.12;100999.03;1760329;80;21911;-80
2021/08/21 08:37:55;;;;;;;5.90;5.05;;;;;;;22.51;60.90;100999.39;1753055;80;21088;-79
2021/08/21 08:40:22;;;;;;;9.13;6.12;;;;;;;22.52;60.83;100995.63;1754527;80;21478;-79
2021/08/21 08:42:48;;;;;;;5.75;4.40;;;;;;;22.48;60.73;100998.51;1757713;80;21047;-79
2021/08/21 08:45:14;;;;;;;7.80;4.00;;;;;;;22.12;60.55;101008.45;1757191;80;21030;-78
2021/08/21 08:47:41;;;;;;;5.28;3.75;;;;;;;21.93;60.47;101000.03;1751673;81;21948;-75
2021/08/21 08:50:11;;;;;;;7.58;4.60;;;;;;;21.75;60.45;101006.81;1764065;80;21431;-75
2021/08/21 08:52:39;;;;;;;6.45;5.00;;;;;;;21.56;60.45;101001.11;1761599;80;21035;-76
2021/08/21 08:55:07;;;;;;;5.97;4.00;;;;;;;21.48;60.46;101010.91;1759144;80;21599;-76
2021/08/21 08:57:42;;;;;;;8.23;3.90;;;;;;;21.70;60.54;101009.39;1759605;80;21003;-76
2021/08/21 09:00:22;;;;;;;4.70;4.25;;;;;;;21.66;60.31;101000.05;1759132;80;21741;-77
2021/08/21 09:02:54;;;;;;;5.75;4.03;;;;;;;21.52;60.33;101008.05;1760392;80;21019;-78
2021/08/21 09:05:23;;;;;;;4.40;3.85;;;;;;;21.32;60.43;101005.56;1771006;80;21503;-77
2021/08/21 09:07:55;;;;;;;5.40;4.05;;;;;;;21.43;60.52;101003.44;1764856;80;21065;-77
2021/08/21 09:10:26;;;;;;;4.53;4.10;;;;;;;21.82;60.39;101002.13;1753266;80;20920;-77
2021/08/21 09:13:13;;;;;;;5.87;3.95;;;;;;;22.20;60.26;100999.95;1760680;80;22439;-77
2021/08/21 09:15:47;;;;;;;7.53;4.10;;;;;;;22.14;59.95;101009.03;1750630;80;20942;-77
2021/08/21 09:18:19;;;;;;;6.87;3.72;;;;;;;21.70;59.77;101004.80;1757162;80;21047;-77
2021/08/21 09:20:53;;;;;;;4.08;3.67;;;;;;;21.36;59.79;101004.87;1761766;80;21007;-77
2021/08/21 09:23:30;;;;;;;6.95;3.85;;;;;;;21.28;59.87;101011.14;1756298;80;21101;-77
2021/08/21 09:26:25;;;;;;;8.35;4.37;;;;;;;21.28;59.90;101011.14;1759096;80;22211;-77
2021/08/21 09:28:51;;;;;;;6.67;3.90;;;;;;;21.49;59.83;101009.86;1747108;80;21135;-77
2021/08/21 09:31:19;;;;;;;5.28;4.08;;;;;;;21.55;59.89;101010.30;1768371;80;21113;-77
2021/08/21 09:33:54;;;;;;;5.90;3.95;;;;;;;21.86;59.87;101004.69;1754625;80;21531;-77
2021/08/21 09:36:30;;;;;;;4.80;4.30;;;;;;;22.27;59.74;101010.75;1770663;80;21479;-76
2021/08/21 09:38:59;;;;;;;8.50;4.42;;;;;;;22.35;59.51;101007.15;1755969;80;21712;-76
2021/08/21 09:41:25;;;;;;;19.77;4.92;;;;;;;22.10;59.24;101010.55;1752937;80;20993;-76
2021/08/21 09:44:07;;;;;;;6.28;4.75;;;;;;;21.89;59.14;101013.73;1763562;80;21066;-76
2021/08/21 09:46:33;;;;;;;4.58;3.72;;;;;;;21.76;59.18;101013.91;1765750;79;21493;-76
2021/08/21 09:49:05;;;;;;;9.28;4.62;;;;;;;21.79;59.31;101008.02;1771611;80;20982;-77
2021/08/21 09:51:40;;;;;;;8.53;3.80;;;;;;;21.88;59.22;101014.81;1757845;80;21625;-76
2021/08/21 09:54:13;;;;;;;9.00;3.92;;;;;;;22.03;59.20;101008.45;1758176;80;21479;-76
2021/08/21 09:56:41;;;;;;;5.28;4.08;;;;;;;22.12;58.94;101008.45;1764296;80;21045;-77
2021/08/21 09:59:07;;;;;;;7.08;4.37;;;;;;;22.23;58.82;101006.83;1771493;80;21078;-76
2021/08/21 10:01:34;;;;;;;8.28;4.50;;;;;;;22.21;58.70;101005.69;1765470;80;21005;-77
2021/08/21 10:04:01;;;;;;;5.28;3.77;;;;;;;22.06;58.65;101001.19;1760739;80;21528;-76
2021/08/21 10:06:27;;;;;;;7.45;5.03;;;;;;;21.93;58.66;101002.74;1761986;80;21087;-77
2021/08/21 10:08:57;;;;;;;5.10;4.47;;;;;;;21.93;58.73;101003.27;1764191;80;21497;-76
2021/08/21 10:11:22;;;;;;;5.15;4.15;;;;;;;21.87;58.69;101004.99;1759346;80;21094;-76
2021/08/21 10:13:48;;;;;;;6.00;4.92;;;;;;;21.77;58.68;100996.56;1766152;80;21393;-77
2021/08/21 10:16:14;;;;;;;15.28;9.88;;;;;;;21.76;58.68;100999.80;1774605;80;21588;-77
2021/08/21 10:18:41;;;;;;;5.65;4.97;;;;;;;22.02;58.78;100997.31;1771755;79;21076;-78
2021/08/21 10:21:08;;;;;;;6.08;4.12;;;;;;;22.34;58.65;100993.25;1772871;80;21036;-76
2021/08/21 10:23:34;;;;;;;7.10;4.97;;;;;;;22.38;58.50;100994.97;1773365;80;21022;-78
2021/08/21 10:26:06;;;;;;;8.03;3.70;;;;;;;22.40;58.30;100989.63;1747352;80;21002;-78
2021/08/21 10:28:36;;;;;;;6.10;3.22;;;;;;;22.45;58.25;100993.54;1769962;79;21698;-76
2021/08/21 10:31:02;;;;;;;5.45;3.70;;;;;;;22.37;58.15;101000.97;1770228;79;20994;-77
2021/08/21 10:33:30;;;;;;;4.60;3.60;;;;;;;22.22;57.95;101003.28;1778828;79;21435;-77
2021/08/21 10:35:57;;;;;;;5.50;3.12;;;;;;;22.11;57.98;101001.34;1783222;79;21046;-77
2021/08/21 10:38:36;;;;;;;3.75;2.62;;;;;;;22.17;58.03;101000.41;1788678;80;21049;-77
2021/08/21 10:41:14;;;;;;;7.30;3.45;;;;;;;22.35;57.98;100994.92;1788937;80;21595;-77
2021/08/21 10:43:49;;;;;;;4.22;3.10;;;;;;;22.62;57.89;100999.42;1788596;80;20994;-77
2021/08/21 10:46:36;;;;;;;5.05;3.30;;;;;;;22.65;57.56;100992.16;1788234;79;21035;-76
2021/08/21 10:49:07;;;;;;;4.53;3.40;;;;;;;22.61;57.46;100996.40;1788597;80;20971;-77
2021/08/21 10:51:43;;;;;;;3.55;3.05;;;;;;;22.61;57.34;100995.56;1788074;80;20982;-77
2021/08/21 10:54:33;;;;;;;3.52;2.87;;;;;;;22.60;57.30;100993.91;1788790;80;21666;-77
2021/08/21 10:57:19;;;;;;;5.45;3.10;;;;;;;22.52;57.25;100994.27;1785867;80;20982;-77
2021/08/21 10:59:47;;;;;;;5.83;3.90;;;;;;;22.69;57.27;100989.83;1758693;80;21027;-77
2021/08/21 11:02:37;;;;;;;7.00;3.60;;;;;;;22.88;57.16;100988.64;1788581;80;21388;-77
2021/08/21 11:05:04;;;;;;;3.70;3.17;;;;;;;23.02;57.01;100991.95;1788659;80;21003;-77
2021/08/21 11:07:39;;;;;;;4.10;3.22;;;;;;;23.10;56.80;100981.55;1788593;80;21774;-77
2021/08/21 11:10:26;;;;;;;4.80;3.52;;;;;;;23.14;56.62;100988.17;1788654;80;21660;-77
2021/08/21 11:12:54;;;;;;;4.47;3.00;;;;;;;23.23;56.55;100988.09;1788559;80;21030;-78
2021/08/21 11:15:25;;;;;;;3.95;3.17;;;;;;;23.26;56.27;100986.78;1788831;80;20939;-77
2021/08/21 11:17:51;;;;;;;5.53;3.65;;;;;;;23.10;56.06;100987.52;1788618;80;21050;-77
2021/08/21 11:20:30;;;;;;;3.80;3.40;;;;;;;22.78;56.09;100987.04;1788776;80;22529;-77